sensor_id;sensor_type;location;lat;lon;timestamp;P1;durP1;ratioP1;P2;durP2;ratioP2
30299;SDS011;17110;52.602;12.998;2023-05-10T00:00:46;6.28;;;4.95;;
30299;SDS011;17110;52.602;12.998;2023-05-10T00:03:12;6.47;;;5.80;;
30299;SDS011;17110;52.602;12.998;2023-05-10T00:05:38;7.53;;;6.10;;
30299;SDS011;17110;52.602;12.998;2023-05-10T00:08:05;6.32;;;5.72;;
30299;SDS011;17110;52.602;12.998;2023-05-10T00:10:30;6.38;;;5.47;;
30299;SDS011;17110;52.602;12.998;2023-05-10T00:12:56;7.72;;;5.43;;
30299;SDS011;17110;52.602;12.998;2023-05-10T00:15:22;5.38;;;4.90;;
30299;SDS011;17110;52.602;12.998;2023-05-10T00:17:47;6.15;;;5.55;;
30299;SDS011;17110;52.602;12.998;2023-05-10T00:20:13;7.07;;;5.68;;
30299;SDS011;17110;52.602;12.998;2023-05-10T00:22:39;5.93;;;5.22;;
30299;SDS011;17110;52.602;12.998;2023-05-10T00:25:07;6.15;;;5.40;;
30299;SDS011;17110;52.602;12.998;2023-05-10T00:27:35;6.30;;;5.70;;
30299;SDS011;17110;52.602;12.998;2023-05-10T00:30:01;5.60;;;5.10;;
30299;SDS011;17110;52.602;12.998;2023-05-10T00:32:27;7.18;;;6.15;;
30299;SDS011;17110;52.602;12.998;2023-05-10T00:34:54;8.05;;;6.30;;
30299;SDS011;17110;52.602;12.998;2023-05-10T00:37:20;6.25;;;5.50;;
30299;SDS011;17110;52.602;12.998;2023-05-10T00:39:45;6.30;;;5.70;;
30299;SDS011;17110;52.602;12.998;2023-05-10T00:42:12;5.97;;;5.47;;
30299;SDS011;17110;52.602;12.998;2023-05-10T00:44:38;5.82;;;5.30;;
30299;SDS011;17110;52.602;12.998;2023-05-10T00:47:04;6.65;;;5.70;;
30299;SDS011;17110;52.602;12.998;2023-05-10T00:49:30;6.43;;;5.43;;
30299;SDS011;17110;52.602;12.998;2023-05-10T00:51:56;6.97;;;5.80;;
30299;SDS011;17110;52.602;12.998;2023-05-10T00:54:22;6.22;;;5.60;;
30299;SDS011;17110;52.602;12.998;2023-05-10T00:56:50;8.95;;;5.80;;
30299;SDS011;17110;52.602;12.998;2023-05-10T00:59:17;5.95;;;5.43;;
30299;SDS011;17110;52.602;12.998;2023-05-10T01:01:44;8.85;;;5.90;;
30299;SDS011;17110;52.602;12.998;2023-05-10T01:04:10;5.93;;;5.32;;
30299;SDS011;17110;52.602;12.998;2023-05-10T01:06:36;6.55;;;5.95;;
30299;SDS011;17110;52.602;12.998;2023-05-10T01:09:02;6.03;;;5.43;;
30299;SDS011;17110;52.602;12.998;2023-05-10T01:11:27;6.88;;;5.40;;
30299;SDS011;17110;52.602;12.998;2023-05-10T01:13:55;5.95;;;5.28;;
30299;SDS011;17110;52.602;12.998;2023-05-10T01:16:23;6.75;;;5.72;;
30299;SDS011;17110;52.602;12.998;2023-05-10T01:18:49;6.32;;;4.95;;
30299;SDS011;17110;52.602;12.998;2023-05-10T01:21:17;6.13;;;5.50;;
30299;SDS011;17110;52.602;12.998;2023-05-10T01:24:00;9.00;;;5.75;;
30299;SDS011;17110;52.602;12.998;2023-05-10T01:26:55;7.30;;;6.00;;
30299;SDS011;17110;52.602;12.998;2023-05-10T01:29:47;10.45;;;6.10;;
30299;SDS011;17110;52.602;12.998;2023-05-10T01:32:29;7.32;;;5.72;;
30299;SDS011;17110;52.602;12.998;2023-05-10T01:35:02;5.47;;;4.97;;
30299;SDS011;17110;52.602;12.998;2023-05-10T01:37:33;6.40;;;5.72;;
30299;SDS011;17110;52.602;12.998;2023-05-10T01:40:07;7.07;;;5.45;;
30299;SDS011;17110;52.602;12.998;2023-05-10T01:42:40;9.30;;;5.60;;
30299;SDS011;17110;52.602;12.998;2023-05-10T01:45:20;6.55;;;5.85;;
30299;SDS011;17110;52.602;12.998;2023-05-10T01:47:56;6.97;;;5.72;;
30299;SDS011;17110;52.602;12.998;2023-05-10T01:50:29;6.95;;;5.90;;
30299;SDS011;17110;52.602;12.998;2023-05-10T01:52:56;6.45;;;5.80;;
30299;SDS011;17110;52.602;12.998;2023-05-10T01:55:25;6.35;;;5.72;;
30299;SDS011;17110;52.602;12.998;2023-05-10T01:57:56;6.53;;;5.80;;
30299;SDS011;17110;52.602;12.998;2023-05-10T02:00:27;6.60;;;5.72;;
30299;SDS011;17110;52.602;12.998;2023-05-10T02:02:55;6.22;;;5.63;;
30299;SDS011;17110;52.602;12.998;2023-05-10T02:05:22;7.30;;;5.30;;
30299;SDS011;17110;52.602;12.998;2023-05-10T02:07:49;5.63;;;5.13;;
30299;SDS011;17110;52.602;12.998;2023-05-10T02:10:16;7.72;;;5.93;;
30299;SDS011;17110;52.602;12.998;2023-05-10T02:12:46;7.00;;;6.10;;
30299;SDS011;17110;52.602;12.998;2023-05-10T02:15:15;6.55;;;5.88;;
30299;SDS011;17110;52.602;12.998;2023-05-10T02:17:48;6.80;;;6.13;;
30299;SDS011;17110;52.602;12.998;2023-05-10T02:20:16;6.57;;;5.88;;
30299;SDS011;17110;52.602;12.998;2023-05-10T02:22:43;7.38;;;6.00;;
30299;SDS011;17110;52.602;12.998;2023-05-10T02:25:12;7.63;;;6.65;;
30299;SDS011;17110;52.602;12.998;2023-05-10T02:27:40;8.50;;;6.15;;
30299;SDS011;17110;52.602;12.998;2023-05-10T02:30:07;8.93;;;6.43;;
30299;SDS011;17110;52.602;12.998;2023-05-10T02:32:35;9.27;;;6.70;;
30299;SDS011;17110;52.602;12.998;2023-05-10T02:35:01;7.70;;;5.80;;
30299;SDS011;17110;52.602;12.998;2023-05-10T02:37:30;7.32;;;6.43;;
30299;SDS011;17110;52.602;12.998;2023-05-10T02:39:56;7.10;;;6.43;;
30299;SDS011;17110;52.602;12.998;2023-05-10T02:42:23;7.32;;;6.68;;
30299;SDS011;17110;52.602;12.998;2023-05-10T02:44:52;6.88;;;6.22;;
30299;SDS011;17110;52.602;12.998;2023-05-10T02:47:21;7.85;;;6.00;;
30299;SDS011;17110;52.602;12.998;2023-05-10T02:49:47;7.20;;;5.90;;
30299;SDS011;17110;52.602;12.998;2023-05-10T02:52:14;8.07;;;6.78;;
30299;SDS011;17110;52.602;12.998;2023-05-10T02:54:46;6.90;;;6.20;;
30299;SDS011;17110;52.602;12.998;2023-05-10T02:57:16;7.32;;;6.57;;
30299;SDS011;17110;52.602;12.998;2023-05-10T02:59:42;7.00;;;6.30;;
30299;SDS011;17110;52.602;12.998;2023-05-10T03:02:08;9.38;;;6.97;;
30299;SDS011;17110;52.602;12.998;2023-05-10T03:04:33;7.57;;;6.88;;
30299;SDS011;17110;52.602;12.998;2023-05-10T03:06:59;8.10;;;6.78;;
30299;SDS011;17110;52.602;12.998;2023-05-10T03:09:25;8.20;;;6.28;;
30299;SDS011;17110;52.602;12.998;2023-05-10T03:11:55;9.70;;;6.97;;
30299;SDS011;17110;52.602;12.998;2023-05-10T03:14:30;7.07;;;6.40;;
30299;SDS011;17110;52.602;12.998;2023-05-10T03:17:10;7.00;;;6.40;;
30299;SDS011;17110;52.602;12.998;2023-05-10T03:19:43;7.75;;;6.15;;
30299;SDS011;17110;52.602;12.998;2023-05-10T03:22:13;9.02;;;6.85;;
30299;SDS011;17110;52.602;12.998;2023-05-10T03:24:46;7.82;;;6.45;;
30299;SDS011;17110;52.602;12.998;2023-05-10T03:27:16;7.55;;;6.85;;
30299;SDS011;17110;52.602;12.998;2023-05-10T03:29:42;7.75;;;6.93;;
30299;SDS011;17110;52.602;12.998;2023-05-10T03:32:09;7.53;;;6.65;;
30299;SDS011;17110;52.602;12.998;2023-05-10T03:34:36;8.55;;;6.82;;
30299;SDS011;17110;52.602;12.998;2023-05-10T03:37:07;7.40;;;6.70;;
30299;SDS011;17110;52.602;12.998;2023-05-10T03:39:32;7.28;;;6.53;;
30299;SDS011;17110;52.602;12.998;2023-05-10T03:41:59;8.43;;;7.22;;
30299;SDS011;17110;52.602;12.998;2023-05-10T03:44:27;6.82;;;6.22;;
30299;SDS011;17110;52.602;12.998;2023-05-10T03:46:52;11.02;;;6.88;;
30299;SDS011;17110;52.602;12.998;2023-05-10T03:49:18;6.68;;;6.07;;
30299;SDS011;17110;52.602;12.998;2023-05-10T03:51:44;11.25;;;6.57;;
30299;SDS011;17110;52.602;12.998;2023-05-10T03:54:09;8.00;;;7.20;;
30299;SDS011;17110;52.602;12.998;2023-05-10T03:56:35;6.63;;;6.00;;
30299;SDS011;17110;52.602;12.998;2023-05-10T03:59:01;7.57;;;6.95;;
30299;SDS011;17110;52.602;12.998;2023-05-10T04:01:28;7.28;;;6.57;;
30299;SDS011;17110;52.602;12.998;2023-05-10T04:03:53;9.45;;;6.78;;
30299;SDS011;17110;52.602;12.998;2023-05-10T04:06:19;8.30;;;6.38;;
30299;SDS011;17110;52.602;12.998;2023-05-10T04:08:45;7.18;;;6.13;;
30299;SDS011;17110;52.602;12.998;2023-05-10T04:11:11;7.65;;;6.85;;
30299;SDS011;17110;52.602;12.998;2023-05-10T04:13:37;9.45;;;6.40;;
30299;SDS011;17110;52.602;12.998;2023-05-10T04:16:03;7.38;;;6.68;;
30299;SDS011;17110;52.602;12.998;2023-05-10T04:18:30;8.32;;;6.28;;
30299;SDS011;17110;52.602;12.998;2023-05-10T04:20:56;6.53;;;5.88;;
30299;SDS011;17110;52.602;12.998;2023-05-10T04:23:22;9.25;;;5.45;;
30299;SDS011;17110;52.602;12.998;2023-05-10T04:25:47;6.95;;;5.60;;
30299;SDS011;17110;52.602;12.998;2023-05-10T04:28:13;5.88;;;5.30;;
30299;SDS011;17110;52.602;12.998;2023-05-10T04:30:39;7.63;;;6.10;;
30299;SDS011;17110;52.602;12.998;2023-05-10T04:33:05;6.45;;;5.85;;
30299;SDS011;17110;52.602;12.998;2023-05-10T04:35:31;10.88;;;5.65;;
30299;SDS011;17110;52.602;12.998;2023-05-10T04:37:57;5.85;;;5.30;;
30299;SDS011;17110;52.602;12.998;2023-05-10T04:40:23;7.28;;;5.03;;
30299;SDS011;17110;52.602;12.998;2023-05-10T04:42:48;7.80;;;5.70;;
30299;SDS011;17110;52.602;12.998;2023-05-10T04:45:14;10.82;;;5.53;;
30299;SDS011;17110;52.602;12.998;2023-05-10T04:47:40;6.40;;;4.95;;
30299;SDS011;17110;52.602;12.998;2023-05-10T04:50:06;7.53;;;5.35;;
30299;SDS011;17110;52.602;12.998;2023-05-10T04:52:33;10.32;;;5.43;;
30299;SDS011;17110;52.602;12.998;2023-05-10T04:54:59;5.40;;;4.55;;
30299;SDS011;17110;52.602;12.998;2023-05-10T04:57:25;15.77;;;6.07;;
30299;SDS011;17110;52.602;12.998;2023-05-10T04:59:50;5.28;;;4.78;;
30299;SDS011;17110;52.602;12.998;2023-05-10T05:02:16;7.10;;;4.68;;
30299;SDS011;17110;52.602;12.998;2023-05-10T05:04:41;6.03;;;4.95;;
30299;SDS011;17110;52.602;12.998;2023-05-10T05:07:07;6.75;;;4.50;;
30299;SDS011;17110;52.602;12.998;2023-05-10T05:09:34;7.03;;;5.03;;
30299;SDS011;17110;52.602;12.998;2023-05-10T05:12:00;9.05;;;4.63;;
30299;SDS011;17110;52.602;12.998;2023-05-10T05:14:25;6.90;;;4.53;;
30299;SDS011;17110;52.602;12.998;2023-05-10T05:16:51;7.75;;;4.60;;
30299;SDS011;17110;52.602;12.998;2023-05-10T05:19:17;7.03;;;4.85;;
30299;SDS011;17110;52.602;12.998;2023-05-10T05:21:42;6.40;;;4.22;;
30299;SDS011;17110;52.602;12.998;2023-05-10T05:24:08;53.65;;;8.20;;
30299;SDS011;17110;52.602;12.998;2023-05-10T05:26:35;6.65;;;4.70;;
30299;SDS011;17110;52.602;12.998;2023-05-10T05:29:01;5.72;;;4.43;;
30299;SDS011;17110;52.602;12.998;2023-05-10T05:31:26;6.65;;;4.55;;
30299;SDS011;17110;52.602;12.998;2023-05-10T05:33:52;7.90;;;4.13;;
30299;SDS011;17110;52.602;12.998;2023-05-10T05:36:18;10.38;;;4.47;;
30299;SDS011;17110;52.602;12.998;2023-05-10T05:38:43;14.63;;;4.95;;
30299;SDS011;17110;52.602;12.998;2023-05-10T05:41:09;99.03;;;10.52;;
30299;SDS011;17110;52.602;12.998;2023-05-10T05:43:36;4.90;;;4.03;;
30299;SDS011;17110;52.602;12.998;2023-05-10T05:46:02;6.90;;;4.43;;
30299;SDS011;17110;52.602;12.998;2023-05-10T05:48:29;6.85;;;4.57;;
30299;SDS011;17110;52.602;12.998;2023-05-10T05:50:55;7.38;;;4.07;;
30299;SDS011;17110;52.602;12.998;2023-05-10T05:53:21;6.20;;;4.13;;
30299;SDS011;17110;52.602;12.998;2023-05-10T05:55:53;8.00;;;4.13;;
30299;SDS011;17110;52.602;12.998;2023-05-10T05:58:19;7.32;;;4.15;;
30299;SDS011;17110;52.602;12.998;2023-05-10T06:00:46;7.03;;;4.13;;
30299;SDS011;17110;52.602;12.998;2023-05-10T06:03:12;6.93;;;3.88;;
30299;SDS011;17110;52.602;12.998;2023-05-10T06:05:38;23.30;;;5.10;;
30299;SDS011;17110;52.602;12.998;2023-05-10T06:08:04;9.60;;;3.85;;
30299;SDS011;17110;52.602;12.998;2023-05-10T06:10:30;6.25;;;3.97;;
30299;SDS011;17110;52.602;12.998;2023-05-10T06:12:55;7.00;;;3.75;;
30299;SDS011;17110;52.602;12.998;2023-05-10T06:15:21;13.25;;;4.25;;
30299;SDS011;17110;52.602;12.998;2023-05-10T06:17:48;10.05;;;3.88;;
30299;SDS011;17110;52.602;12.998;2023-05-10T06:20:14;5.55;;;3.33;;
30299;SDS011;17110;52.602;12.998;2023-05-10T06:22:39;24.52;;;4.95;;
30299;SDS011;17110;52.602;12.998;2023-05-10T06:25:06;6.28;;;4.22;;
30299;SDS011;17110;52.602;12.998;2023-05-10T06:27:32;12.20;;;3.85;;
30299;SDS011;17110;52.602;12.998;2023-05-10T06:29:58;7.55;;;3.40;;
30299;SDS011;17110;52.602;12.998;2023-05-10T06:32:23;5.60;;;3.92;;
30299;SDS011;17110;52.602;12.998;2023-05-10T06:34:50;6.25;;;3.40;;
30299;SDS011;17110;52.602;12.998;2023-05-10T06:37:16;4.45;;;3.38;;
30299;SDS011;17110;52.602;12.998;2023-05-10T06:39:42;10.07;;;4.13;;
30299;SDS011;17110;52.602;12.998;2023-05-10T06:42:07;4.40;;;3.53;;
30299;SDS011;17110;52.602;12.998;2023-05-10T06:44:33;12.45;;;3.67;;
30299;SDS011;17110;52.602;12.998;2023-05-10T06:46:58;8.43;;;3.63;;
30299;SDS011;17110;52.602;12.998;2023-05-10T06:49:24;37.70;;;5.40;;
30299;SDS011;17110;52.602;12.998;2023-05-10T06:51:51;6.35;;;3.35;;
30299;SDS011;17110;52.602;12.998;2023-05-10T06:54:17;20.42;;;4.85;;
30299;SDS011;17110;52.602;12.998;2023-05-10T06:56:42;5.90;;;3.50;;
30299;SDS011;17110;52.602;12.998;2023-05-10T06:59:08;4.18;;;3.47;;
30299;SDS011;17110;52.602;12.998;2023-05-10T07:01:34;6.63;;;3.45;;
30299;SDS011;17110;52.602;12.998;2023-05-10T07:03:59;6.47;;;3.88;;
30299;SDS011;17110;52.602;12.998;2023-05-10T07:06:25;9.48;;;3.78;;
30299;SDS011;17110;52.602;12.998;2023-05-10T07:08:52;7.78;;;3.72;;
30299;SDS011;17110;52.602;12.998;2023-05-10T07:11:17;6.20;;;3.13;;
30299;SDS011;17110;52.602;12.998;2023-05-10T07:13:43;5.35;;;3.20;;
30299;SDS011;17110;52.602;12.998;2023-05-10T07:16:09;5.85;;;3.30;;
30299;SDS011;17110;52.602;12.998;2023-05-10T07:18:35;5.55;;;3.38;;
30299;SDS011;17110;52.602;12.998;2023-05-10T07:21:00;4.00;;;3.25;;
30299;SDS011;17110;52.602;12.998;2023-05-10T07:23:26;10.60;;;3.47;;
30299;SDS011;17110;52.602;12.998;2023-05-10T07:25:53;9.32;;;3.63;;
30299;SDS011;17110;52.602;12.998;2023-05-10T07:28:19;6.30;;;3.45;;
30299;SDS011;17110;52.602;12.998;2023-05-10T07:30:45;6.80;;;3.03;;
30299;SDS011;17110;52.602;12.998;2023-05-10T07:33:11;6.45;;;3.33;;
30299;SDS011;17110;52.602;12.998;2023-05-10T07:35:38;10.48;;;3.58;;
30299;SDS011;17110;52.602;12.998;2023-05-10T07:38:04;3.42;;;3.13;;
30299;SDS011;17110;52.602;12.998;2023-05-10T07:40:29;6.07;;;3.65;;
30299;SDS011;17110;52.602;12.998;2023-05-10T07:42:57;5.18;;;2.95;;
30299;SDS011;17110;52.602;12.998;2023-05-10T07:45:22;5.35;;;3.83;;
30299;SDS011;17110;52.602;12.998;2023-05-10T07:47:48;6.30;;;3.38;;
30299;SDS011;17110;52.602;12.998;2023-05-10T07:50:14;3.42;;;3.15;;
30299;SDS011;17110;52.602;12.998;2023-05-10T07:52:39;6.03;;;3.17;;
30299;SDS011;17110;52.602;12.998;2023-05-10T07:55:05;5.50;;;3.50;;
30299;SDS011;17110;52.602;12.998;2023-05-10T07:57:32;12.15;;;3.53;;
30299;SDS011;17110;52.602;12.998;2023-05-10T07:59:59;8.20;;;2.88;;
30299;SDS011;17110;52.602;12.998;2023-05-10T08:02:25;9.43;;;3.70;;
30299;SDS011;17110;52.602;12.998;2023-05-10T08:04:50;6.40;;;3.17;;
30299;SDS011;17110;52.602;12.998;2023-05-10T08:07:16;4.57;;;3.28;;
30299;SDS011;17110;52.602;12.998;2023-05-10T08:09:41;9.90;;;3.80;;
30299;SDS011;17110;52.602;12.998;2023-05-10T08:12:07;5.05;;;2.72;;
30299;SDS011;17110;52.602;12.998;2023-05-10T08:14:33;9.50;;;3.20;;
30299;SDS011;17110;52.602;12.998;2023-05-10T08:17:00;12.77;;;3.78;;
30299;SDS011;17110;52.602;12.998;2023-05-10T08:19:26;6.75;;;3.20;;
30299;SDS011;17110;52.602;12.998;2023-05-10T08:21:51;5.45;;;3.25;;
30299;SDS011;17110;52.602;12.998;2023-05-10T08:24:17;3.05;;;2.80;;
30299;SDS011;17110;52.602;12.998;2023-05-10T08:26:43;6.68;;;2.83;;
30299;SDS011;17110;52.602;12.998;2023-05-10T08:29:08;3.15;;;2.83;;
30299;SDS011;17110;52.602;12.998;2023-05-10T08:31:34;6.47;;;2.65;;
30299;SDS011;17110;52.602;12.998;2023-05-10T08:34:01;10.25;;;2.78;;
30299;SDS011;17110;52.602;12.998;2023-05-10T08:36:26;13.52;;;3.85;;
30299;SDS011;17110;52.602;12.998;2023-05-10T08:38:52;4.82;;;2.60;;
30299;SDS011;17110;52.602;12.998;2023-05-10T08:41:19;3.58;;;2.92;;
30299;SDS011;17110;52.602;12.998;2023-05-10T08:43:45;7.15;;;3.22;;
30299;SDS011;17110;52.602;12.998;2023-05-10T08:46:10;6.38;;;3.10;;
30299;SDS011;17110;52.602;12.998;2023-05-10T08:48:39;3.63;;;3.00;;
30299;SDS011;17110;52.602;12.998;2023-05-10T08:51:07;10.13;;;3.15;;
30299;SDS011;17110;52.602;12.998;2023-05-10T08:53:34;5.30;;;2.65;;
30299;SDS011;17110;52.602;12.998;2023-05-10T08:56:02;4.82;;;3.20;;
30299;SDS011;17110;52.602;12.998;2023-05-10T08:58:29;7.38;;;2.65;;
30299;SDS011;17110;52.602;12.998;2023-05-10T09:00:54;8.27;;;3.88;;
30299;SDS011;17110;52.602;12.998;2023-05-10T09:03:21;5.38;;;2.90;;
30299;SDS011;17110;52.602;12.998;2023-05-10T09:05:47;4.60;;;3.08;;
30299;SDS011;17110;52.602;12.998;2023-05-10T09:08:15;6.75;;;3.42;;
30299;SDS011;17110;52.602;12.998;2023-05-10T09:10:42;4.93;;;3.22;;
30299;SDS011;17110;52.602;12.998;2023-05-10T09:13:09;6.10;;;3.10;;
30299;SDS011;17110;52.602;12.998;2023-05-10T09:15:35;10.00;;;3.45;;
30299;SDS011;17110;52.602;12.998;2023-05-10T09:18:01;13.32;;;3.35;;
30299;SDS011;17110;52.602;12.998;2023-05-10T09:20:26;6.85;;;3.00;;
30299;SDS011;17110;52.602;12.998;2023-05-10T09:22:52;7.57;;;3.13;;
30299;SDS011;17110;52.602;12.998;2023-05-10T09:25:19;6.22;;;3.00;;
30299;SDS011;17110;52.602;12.998;2023-05-10T09:27:46;5.53;;;3.38;;
30299;SDS011;17110;52.602;12.998;2023-05-10T09:30:15;11.30;;;3.33;;
30299;SDS011;17110;52.602;12.998;2023-05-10T09:32:42;10.82;;;3.03;;
30299;SDS011;17110;52.602;12.998;2023-05-10T09:35:08;12.02;;;3.35;;
30299;SDS011;17110;52.602;12.998;2023-05-10T09:37:35;7.25;;;3.13;;
30299;SDS011;17110;52.602;12.998;2023-05-10T09:40:02;5.72;;;3.20;;
30299;SDS011;17110;52.602;12.998;2023-05-10T09:42:31;5.70;;;3.20;;
30299;SDS011;17110;52.602;12.998;2023-05-10T09:44:59;5.05;;;3.03;;
30299;SDS011;17110;52.602;12.998;2023-05-10T09:47:26;4.65;;;2.85;;
30299;SDS011;17110;52.602;12.998;2023-05-10T09:49:52;8.02;;;3.30;;
30299;SDS011;17110;52.602;12.998;2023-05-10T09:52:18;6.80;;;3.78;;
30299;SDS011;17110;52.602;12.998;2023-05-10T09:54:45;3.97;;;2.78;;
30299;SDS011;17110;52.602;12.998;2023-05-10T09:57:18;3.70;;;2.90;;
30299;SDS011;17110;52.602;12.998;2023-05-10T09:59:47;9.23;;;3.20;;
30299;SDS011;17110;52.602;12.998;2023-05-10T10:02:12;4.28;;;3.05;;
30299;SDS011;17110;52.602;12.998;2023-05-10T10:04:38;10.00;;;3.17;;
30299;SDS011;17110;52.602;12.998;2023-05-10T10:07:04;7.25;;;3.08;;
30299;SDS011;17110;52.602;12.998;2023-05-10T10:09:34;5.25;;;3.45;;
30299;SDS011;17110;52.602;12.998;2023-05-10T10:12:00;4.45;;;2.95;;
30299;SDS011;17110;52.602;12.998;2023-05-10T10:14:26;11.57;;;3.28;;
30299;SDS011;17110;52.602;12.998;2023-05-10T10:16:53;6.57;;;3.50;;
30299;SDS011;17110;52.602;12.998;2023-05-10T10:19:19;6.50;;;3.05;;
30299;SDS011;17110;52.602;12.998;2023-05-10T10:21:45;4.63;;;2.92;;
30299;SDS011;17110;52.602;12.998;2023-05-10T10:24:10;5.07;;;3.05;;
30299;SDS011;17110;52.602;12.998;2023-05-10T10:26:36;6.03;;;3.00;;
30299;SDS011;17110;52.602;12.998;2023-05-10T10:29:04;4.43;;;2.70;;
30299;SDS011;17110;52.602;12.998;2023-05-10T10:31:39;15.95;;;4.50;;
30299;SDS011;17110;52.602;12.998;2023-05-10T10:34:16;7.82;;;3.35;;
30299;SDS011;17110;52.602;12.998;2023-05-10T10:39:15;6.93;;;3.00;;
30299;SDS011;17110;52.602;12.998;2023-05-10T10:41:48;3.33;;;3.03;;
30299;SDS011;17110;52.602;12.998;2023-05-10T10:44:25;3.97;;;3.10;;
30299;SDS011;17110;52.602;12.998;2023-05-10T10:46:58;5.03;;;2.92;;
30299;SDS011;17110;52.602;12.998;2023-05-10T10:49:26;4.00;;;2.90;;
30299;SDS011;17110;52.602;12.998;2023-05-10T10:54:38;5.20;;;2.88;;
30299;SDS011;17110;52.602;12.998;2023-05-10T10:57:10;25.65;;;4.40;;
30299;SDS011;17110;52.602;12.998;2023-05-10T10:59:35;12.50;;;3.15;;
30299;SDS011;17110;52.602;12.998;2023-05-10T11:02:06;7.50;;;2.83;;
30299;SDS011;17110;52.602;12.998;2023-05-10T11:04:36;3.15;;;2.80;;
30299;SDS011;17110;52.602;12.998;2023-05-10T11:07:15;11.82;;;3.33;;
30299;SDS011;17110;52.602;12.998;2023-05-10T11:09:41;12.85;;;3.50;;
30299;SDS011;17110;52.602;12.998;2023-05-10T11:12:07;3.33;;;2.35;;
30299;SDS011;17110;52.602;12.998;2023-05-10T11:14:33;14.55;;;3.63;;
30299;SDS011;17110;52.602;12.998;2023-05-10T11:16:59;4.68;;;2.85;;
30299;SDS011;17110;52.602;12.998;2023-05-10T11:19:27;6.07;;;3.22;;
30299;SDS011;17110;52.602;12.998;2023-05-10T11:22:12;16.35;;;4.03;;
30299;SDS011;17110;52.602;12.998;2023-05-10T11:24:38;7.35;;;2.67;;
30299;SDS011;17110;52.602;12.998;2023-05-10T11:27:04;8.43;;;3.13;;
30299;SDS011;17110;52.602;12.998;2023-05-10T11:29:30;12.57;;;3.70;;
30299;SDS011;17110;52.602;12.998;2023-05-10T11:31:56;11.45;;;3.63;;
30299;SDS011;17110;52.602;12.998;2023-05-10T11:34:23;16.13;;;3.25;;
30299;SDS011;17110;52.602;12.998;2023-05-10T11:36:50;8.82;;;2.78;;
30299;SDS011;17110;52.602;12.998;2023-05-10T11:39:18;87.45;;;11.30;;
30299;SDS011;17110;52.602;12.998;2023-05-10T11:41:44;4.90;;;2.88;;
30299;SDS011;17110;52.602;12.998;2023-05-10T11:44:13;36.53;;;4.78;;
30299;SDS011;17110;52.602;12.998;2023-05-10T11:46:39;9.43;;;3.35;;
30299;SDS011;17110;52.602;12.998;2023-05-10T11:49:04;12.25;;;3.38;;
30299;SDS011;17110;52.602;12.998;2023-05-10T11:51:32;5.20;;;2.97;;
30299;SDS011;17110;52.602;12.998;2023-05-10T11:53:59;4.10;;;2.80;;
30299;SDS011;17110;52.602;12.998;2023-05-10T11:56:26;6.80;;;2.60;;
30299;SDS011;17110;52.602;12.998;2023-05-10T11:58:52;4.18;;;2.80;;
30299;SDS011;17110;52.602;12.998;2023-05-10T12:01:18;6.10;;;3.15;;
30299;SDS011;17110;52.602;12.998;2023-05-10T12:03:45;4.32;;;2.65;;
30299;SDS011;17110;52.602;12.998;2023-05-10T12:06:12;4.28;;;2.72;;
30299;SDS011;17110;52.602;12.998;2023-05-10T12:08:43;56.00;;;7.35;;
30299;SDS011;17110;52.602;12.998;2023-05-10T12:11:11;12.45;;;3.42;;
30299;SDS011;17110;52.602;12.998;2023-05-10T12:13:39;3.83;;;2.78;;
30299;SDS011;17110;52.602;12.998;2023-05-10T12:16:12;7.85;;;2.83;;
30299;SDS011;17110;52.602;12.998;2023-05-10T12:18:38;3.42;;;2.67;;
30299;SDS011;17110;52.602;12.998;2023-05-10T12:21:05;6.90;;;2.70;;
30299;SDS011;17110;52.602;12.998;2023-05-10T12:23:31;19.00;;;3.50;;
30299;SDS011;17110;52.602;12.998;2023-05-10T12:26:01;6.82;;;2.90;;
30299;SDS011;17110;52.602;12.998;2023-05-10T12:28:29;3.70;;;2.80;;
30299;SDS011;17110;52.602;12.998;2023-05-10T12:30:56;8.20;;;2.72;;
30299;SDS011;17110;52.602;12.998;2023-05-10T12:33:24;4.60;;;2.42;;
30299;SDS011;17110;52.602;12.998;2023-05-10T12:35:50;7.07;;;3.10;;
30299;SDS011;17110;52.602;12.998;2023-05-10T12:38:27;4.03;;;3.30;;
30299;SDS011;17110;52.602;12.998;2023-05-10T12:40:54;9.25;;;3.15;;
30299;SDS011;17110;52.602;12.998;2023-05-10T12:43:19;4.30;;;2.35;;
30299;SDS011;17110;52.602;12.998;2023-05-10T12:45:45;8.60;;;3.70;;
30299;SDS011;17110;52.602;12.998;2023-05-10T12:48:12;4.60;;;2.70;;
30299;SDS011;17110;52.602;12.998;2023-05-10T12:50:37;4.00;;;2.53;;
30299;SDS011;17110;52.602;12.998;2023-05-10T12:53:03;12.55;;;3.10;;
30299;SDS011;17110;52.602;12.998;2023-05-10T12:55:29;5.85;;;2.42;;
30299;SDS011;17110;52.602;12.998;2023-05-10T12:57:54;21.83;;;4.07;;
30299;SDS011;17110;52.602;12.998;2023-05-10T13:00:20;11.88;;;3.47;;
30299;SDS011;17110;52.602;12.998;2023-05-10T13:02:45;7.18;;;3.03;;
30299;SDS011;17110;52.602;12.998;2023-05-10T13:05:12;22.08;;;3.60;;
30299;SDS011;17110;52.602;12.998;2023-05-10T13:07:38;5.90;;;2.33;;
30299;SDS011;17110;52.602;12.998;2023-05-10T13:10:04;3.58;;;2.45;;
30299;SDS011;17110;52.602;12.998;2023-05-10T13:12:31;14.73;;;3.28;;
30299;SDS011;17110;52.602;12.998;2023-05-10T13:14:57;6.05;;;2.60;;
30299;SDS011;17110;52.602;12.998;2023-05-10T13:17:22;2.88;;;2.38;;
30299;SDS011;17110;52.602;12.998;2023-05-10T13:19:50;9.65;;;2.85;;
30299;SDS011;17110;52.602;12.998;2023-05-10T13:22:16;2.83;;;2.40;;
30299;SDS011;17110;52.602;12.998;2023-05-10T13:24:42;3.53;;;2.65;;
30299;SDS011;17110;52.602;12.998;2023-05-10T13:27:08;3.03;;;2.30;;
30299;SDS011;17110;52.602;12.998;2023-05-10T13:29:34;7.70;;;2.63;;
30299;SDS011;17110;52.602;12.998;2023-05-10T13:31:59;5.60;;;2.70;;
30299;SDS011;17110;52.602;12.998;2023-05-10T13:34:25;11.77;;;3.25;;
30299;SDS011;17110;52.602;12.998;2023-05-10T13:36:51;4.82;;;2.85;;
30299;SDS011;17110;52.602;12.998;2023-05-10T13:39:19;3.95;;;2.33;;
30299;SDS011;17110;52.602;12.998;2023-05-10T13:41:45;19.75;;;3.67;;
30299;SDS011;17110;52.602;12.998;2023-05-10T13:44:11;3.08;;;2.47;;
30299;SDS011;17110;52.602;12.998;2023-05-10T13:46:37;4.03;;;2.85;;
30299;SDS011;17110;52.602;12.998;2023-05-10T13:49:03;21.20;;;3.75;;
30299;SDS011;17110;52.602;12.998;2023-05-10T13:51:29;8.10;;;3.15;;
30299;SDS011;17110;52.602;12.998;2023-05-10T13:53:54;8.52;;;3.35;;
30299;SDS011;17110;52.602;12.998;2023-05-10T13:56:21;6.93;;;2.72;;
30299;SDS011;17110;52.602;12.998;2023-05-10T13:58:47;13.05;;;4.32;;
30299;SDS011;17110;52.602;12.998;2023-05-10T14:01:12;7.38;;;2.90;;
30299;SDS011;17110;52.602;12.998;2023-05-10T14:03:38;12.20;;;3.67;;
30299;SDS011;17110;52.602;12.998;2023-05-10T14:06:04;8.70;;;3.15;;
30299;SDS011;17110;52.602;12.998;2023-05-10T14:08:29;32.88;;;4.63;;
30299;SDS011;17110;52.602;12.998;2023-05-10T14:10:55;5.13;;;2.70;;
30299;SDS011;17110;52.602;12.998;2023-05-10T14:13:22;5.72;;;2.80;;
30299;SDS011;17110;52.602;12.998;2023-05-10T14:15:48;4.35;;;2.85;;
30299;SDS011;17110;52.602;12.998;2023-05-10T14:18:13;5.28;;;3.30;;
30299;SDS011;17110;52.602;12.998;2023-05-10T14:20:39;6.30;;;3.28;;
30299;SDS011;17110;52.602;12.998;2023-05-10T14:23:05;13.10;;;3.35;;
30299;SDS011;17110;52.602;12.998;2023-05-10T14:25:30;3.30;;;2.50;;
30299;SDS011;17110;52.602;12.998;2023-05-10T14:27:56;9.90;;;2.90;;
30299;SDS011;17110;52.602;12.998;2023-05-10T14:30:23;5.22;;;2.67;;
30299;SDS011;17110;52.602;12.998;2023-05-10T14:32:48;5.90;;;2.85;;
30299;SDS011;17110;52.602;12.998;2023-05-10T14:35:14;5.60;;;3.03;;
30299;SDS011;17110;52.602;12.998;2023-05-10T14:37:40;5.60;;;2.92;;